MAPA DE AEROPUERTO

INFORMACIÓN METAR y TAF

METAR FOR LESA
ADDS - METARS form results

(0806 UTC 05 December 2020)
Data provider http://aviationweather.gov/metar/data/
 
METAR text: LESA 050800Z 28013KT 9999 SCT016 M01/M02 Q1003
Conditions at: LESA (SALAMANCA (CIV/M, ES) observed 0800 UTC 05 December 2020
Temperature: -1.0°C (30°F)
Dewpoint: -2.0°C (28°F) [RH = 93%]
Pressure (altimeter): 29.62 inches Hg (1003.0 mb)
Winds: from the W (280 degrees) at 15 MPH (13 knots; 6.7 m/s)
Visibility: 6 or more miles (10+ km)
Ceiling: at least 12,000 feet AGL
Clouds: scattered clouds at 1600 feet AGL
Weather: no significant weather observed at this time

METAR text: LESA 050730Z 28011KT 250V310 9999 BKN011 BKN016 M01/M02 Q1003
Conditions at: LESA (SALAMANCA (CIV/M, ES) observed 0730 UTC 05 December 2020
Temperature: -1.0°C (30°F)
Dewpoint: -2.0°C (28°F) [RH = 93%]
Pressure (altimeter): 29.62 inches Hg (1003.0 mb)
Winds: from the W (280 degrees) at 13 MPH (11 knots; 5.7 m/s)
Visibility: 6 or more miles (10+ km)
Ceiling: 1100 feet AGL
Clouds: broken clouds at 1100 feet AGL
broken clouds at 1600 feet AGL
Weather: no significant weather observed at this time

Forecast for: LESA (SALAMANCA (CIV/M, ES)
Text: TAF LESA 050200Z 0503/0603 28012KT 9999 SCT025 TX04/0514Z TNM03/0506Z
Forecast period: 0300 to 1800 UTC 05 December 2020
Forecast type: FROM: standard forecast or significant change
Winds: from the W (280 degrees) at 14 MPH (12 knots; 6.2 m/s)
Visibility: 6 or more miles (10+ km)
Ceiling: at least 12,000 feet AGL
Clouds: scattered clouds at 2500 feet AGL
Weather: no significant weather forecast for this period
Text: PROB30
Forecast period: 0300 to 1600 UTC 05 December 2020
Forecast type: TEMPORARY: The following changes expected for less than half the time period
Visibility: missing
Ceiling: at least 12,000 feet AGL
Clouds: few clouds at 2500 feet AGL
Weather: no significant weather forecast for this period
Text: TEMPO 0503/0516 FEW025TCU
Forecast period: 0300 to 1700 UTC 05 December 2020
Forecast type: TEMPORARY: The following changes expected for less than half the time period
Visibility: missing
Ceiling: 800 feet AGL
Clouds: broken clouds at 800 feet AGL
Weather: no significant weather forecast for this period
Text: PROB40
Forecast period: 1800 UTC 05 December 2020 to 0300 UTC 06 December 2020
Forecast type: BECOMING: Conditions expected to become as follows by 2000 UTC 05 December 2020
Winds: from the W (280 degrees) at 14 MPH (12 knots; 6.2 m/s)
Visibility: 6 or more miles (10+ km)
Ceiling: at least 12,000 feet AGL
Clouds: scattered clouds at 400 feet AGL
Weather: no significant weather forecast for this period